Portada
METAR-TAF:

METAR-TAF

Aeroports :

Midway, Estats Units d'Amèrica

latitud: 28-13N, longitud: 177-22W, altitud: 4 m

Observació

L'informe es va fer fa 1 hora i 3 minuts, a les 12:56 UTC
Vent 6 kt del Nord-Est
Temperatura 26°C
Humitat 89%
Pressió 1022 hPa
Visibilitat: 12.9 km
Núvols disperses a una alçada de 800 ft
Cel cobert a una alçada de 1400 ft

METAR: PMDY 171256Z AUTO 05006KT 8SM SCT008 OVC014 26/24 A3019 RMK AO2 RAB17E56 SLP222 P0000 T02560244

Hora: 03:59 (13:59 UTC)

Pronòstic

L'informe es va fer fa 2 hores i 16 minuts, a les 11:43 UTC
Pronòstic vàlid del 17 a les 12 UTC al 18 a les 12 UTC
Vent 8 kt del Est/Sud-Est
Visibilitat: 10 km
Núvols disperses a una alçada de 1500 ft
Núvols disperses a una alçada de 2000 ft
Núvols disperses a una alçada de 3000 ft

TAF: PMDY 171143Z 1712/1812 11008KT P6SM SCT015 SCT020 SCT030

Observacions i pronòstics meteorològics de més de 4000 aeroports (METAR i TAF).

Les estacions disponibles són els punts grocs i vermells al mapa.

Posi el ratolí al punt desitjat per veure el nom de l'estació.

Feu clic per veure les observacions i els pronòstics meteorològics.

Per canviar el mapa: feu clic els botons verds amb una creu de color negre per apropar; al botó verd amb un guió per allunyar la imatge; o en les fletxes verdes per a mapes adjacents.


METAR-TAF: